Osakis, Minnesota
Current Conditions -  °F | °C
As of 1:53 PM on Monday 22 Dec 2014 (Local Time) from KAXN Reporting Station
Overcast Overcast  
Wind Chill: -4°   Ceiling: 500
Heat Index:   Visibility: 9mi
Dew Point:   Wind: 15mph
Humidity: 92%   Direction: 110°ESE
Pressure: 29.51"   Gusts: 24mph
Location:  45.87°N, 95.15°W
Report Text: KAXN 221953Z AUTO 11013G21KT 9SM OVC005 02/01 A2951 RMK AO2 SLP006 T00170006
Loading
Personal Weather Stations






























Interactive Weather Map New forecast layout! Learn more

10-Day Weather Forecast

Advertisements
Track Severe Weather on mobile